Time;durP1;ratioP1;P1;durP2;ratioP2;P2;SDS_P1;SDS_P2;PMS_P1;PMS_P2;Temp;Humidity;BMP_temperature;BMP_pressure;BME280_temperature;BME280_humidity;BME280_pressure;Samples;Min_cycle;Max_cycle;Signal;HPM_P1;HPM_P2
2022/12/14 00:01:15;;;;;;;32.80;17.27;;;;;;;;;;5052114;28;20500;-65
2022/12/14 00:03:41;;;;;;;30.95;16.63;;;;;;;;;;5053501;28;20025;-66
2022/12/14 00:06:11;;;;;;;30.30;14.88;;;;;;;;;;5052496;28;20025;-65
2022/12/14 00:08:37;;;;;;;32.85;17.25;;;;;;;;;;5053486;28;20032;-67
2022/12/14 00:11:04;;;;;;;33.03;16.80;;;;;;;;;;5052352;28;20029;-62
2022/12/14 00:13:30;;;;;;;31.73;16.27;;;;;;;;;;5053126;28;20029;-63
2022/12/14 00:15:56;;;;;;;30.95;15.60;;;;;;;;;;5052466;28;20178;-64
2022/12/14 00:18:22;;;;;;;30.58;14.50;;;;;;;;;;5053687;28;20044;-63
2022/12/14 00:20:48;;;;;;;34.30;15.15;;;;;;;;;;5053923;28;20111;-64
2022/12/14 00:23:14;;;;;;;33.33;15.27;;;;;;;;;;5053550;28;20095;-65
2022/12/14 00:25:40;;;;;;;30.10;15.13;;;;;;;;;;5053590;28;20444;-64
2022/12/14 00:28:06;;;;;;;29.42;15.52;;;;;;;;;;5053896;28;20024;-65
2022/12/14 00:30:32;;;;;;;26.90;14.07;;;;;;;;;;5053717;28;20055;-64
2022/12/14 00:32:58;;;;;;;30.80;15.32;;;;;;;;;;5052182;28;20116;-64
2022/12/14 00:35:24;;;;;;;31.38;15.93;;;;;;;;;;5053456;28;20181;-64
2022/12/14 00:37:50;;;;;;;31.50;15.20;;;;;;;;;;5052238;28;20025;-64
2022/12/14 00:40:16;;;;;;;30.58;15.85;;;;;;;;;;5052224;28;20108;-64
2022/12/14 00:42:42;;;;;;;28.73;14.10;;;;;;;;;;5053578;28;20392;-64
2022/12/14 00:45:09;;;;;;;30.13;14.55;;;;;;;;;;5053153;28;20152;-64
2022/12/14 00:47:35;;;;;;;35.13;17.80;;;;;;;;;;5053360;28;20029;-63
2022/12/14 00:50:01;;;;;;;31.85;14.98;;;;;;;;;;5053039;28;20021;-62
2022/12/14 00:52:26;;;;;;;28.73;14.63;;;;;;;;;;5052184;28;20041;-64
2022/12/14 00:54:52;;;;;;;29.13;14.27;;;;;;;;;;5053015;28;20389;-64
2022/12/14 00:57:18;;;;;;;30.65;15.38;;;;;;;;;;5051839;28;20056;-64
2022/12/14 00:59:44;;;;;;;34.10;14.82;;;;;;;;;;5052932;28;20094;-65
2022/12/14 01:02:10;;;;;;;30.33;14.13;;;;;;;;;;5053228;28;20029;-63
2022/12/14 01:04:36;;;;;;;28.52;13.55;;;;;;;;;;5052824;28;20025;-64
2022/12/14 01:07:02;;;;;;;29.67;15.07;;;;;;;;;;5053069;28;20021;-64
2022/12/14 01:09:28;;;;;;;30.42;15.68;;;;;;;;;;5052734;28;20415;-65
2022/12/14 01:11:54;;;;;;;29.60;14.23;;;;;;;;;;5052708;28;20381;-65
2022/12/14 01:14:21;;;;;;;31.65;14.40;;;;;;;;;;5051283;28;20025;-65
2022/12/14 01:16:47;;;;;;;28.50;13.65;;;;;;;;;;5051438;28;20040;-65
2022/12/14 01:19:14;;;;;;;28.23;13.88;;;;;;;;;;5051477;28;20029;-63
2022/12/14 01:21:40;;;;;;;31.02;16.98;;;;;;;;;;5051619;28;20033;-64
2022/12/14 01:24:07;;;;;;;32.97;16.17;;;;;;;;;;5052449;28;20473;-62
2022/12/14 01:26:36;;;;;;;30.10;14.23;;;;;;;;;;5050733;28;20079;-64
2022/12/14 01:29:02;;;;;;;30.75;13.90;;;;;;;;;;5052380;28;20032;-64
2022/12/14 01:31:30;;;;;;;28.20;13.13;;;;;;;;;;5052545;28;20033;-63
2022/12/14 01:33:56;;;;;;;28.25;13.82;;;;;;;;;;5052360;28;20053;-64
2022/12/14 01:36:24;;;;;;;28.35;13.13;;;;;;;;;;5051286;28;20025;-65
2022/12/14 01:38:54;;;;;;;29.55;13.77;;;;;;;;;;5052233;28;20500;-64
2022/12/14 01:41:26;;;;;;;28.85;12.63;;;;;;;;;;5052689;28;20032;-63
2022/12/14 01:43:53;;;;;;;28.55;14.30;;;;;;;;;;5050949;28;20425;-62
2022/12/14 01:46:25;;;;;;;28.40;14.05;;;;;;;;;;5051315;28;20481;-63
2022/12/14 01:48:54;;;;;;;30.85;15.52;;;;;;;;;;5052194;28;20029;-64
2022/12/14 01:51:21;;;;;;;32.17;13.32;;;;;;;;;;5052204;28;20025;-64
2022/12/14 01:53:47;;;;;;;25.98;13.57;;;;;;;;;;5050746;28;20028;-64
2022/12/14 01:56:14;;;;;;;28.15;13.20;;;;;;;;;;5037754;28;20075;-61
2022/12/14 01:58:39;;;;;;;27.23;14.05;;;;;;;;;;5031888;28;20021;-63
2022/12/14 02:01:06;;;;;;;29.00;13.23;;;;;;;;;;5052295;28;20491;-62
2022/12/14 02:03:37;;;;;;;27.90;13.48;;;;;;;;;;5051844;28;20393;-63
2022/12/14 02:06:06;;;;;;;29.25;13.05;;;;;;;;;;5052042;28;20028;-63
2022/12/14 02:08:32;;;;;;;28.60;13.32;;;;;;;;;;5050737;28;20029;-62
2022/12/14 02:10:59;;;;;;;24.52;12.20;;;;;;;;;;5049792;28;20033;-63
2022/12/14 02:13:28;;;;;;;27.92;13.18;;;;;;;;;;5031978;28;20470;-63
2022/12/14 02:15:54;;;;;;;25.10;12.05;;;;;;;;;;5032117;28;20032;-63
2022/12/14 02:18:22;;;;;;;24.20;11.95;;;;;;;;;;5032111;28;20392;-63
2022/12/14 02:21:26;;;;;;;31.88;14.93;;;;;;;;;;5032071;28;20033;-62
2022/12/14 02:24:20;;;;;;;26.45;12.30;;;;;;;;;;4993445;28;20501;-63
2022/12/14 02:26:55;;;;;;;25.25;12.50;;;;;;;;;;5009982;28;20038;-63
2022/12/14 02:29:27;;;;;;;29.48;14.52;;;;;;;;;;5019418;28;20116;-64
2022/12/14 02:32:12;;;;;;;27.27;12.70;;;;;;;;;;5031961;28;20026;-64
2022/12/14 02:34:38;;;;;;;25.80;12.07;;;;;;;;;;5030392;28;20028;-65
2022/12/14 02:37:10;;;;;;;29.85;13.88;;;;;;;;;;5031034;28;20026;-63
2022/12/14 02:39:45;;;;;;;28.05;13.73;;;;;;;;;;5034658;28;20104;-65
2022/12/14 02:42:19;;;;;;;27.95;12.55;;;;;;;;;;5035110;28;20120;-64
2022/12/14 02:44:56;;;;;;;25.42;12.27;;;;;;;;;;5035868;28;20021;-62
2022/12/14 02:47:26;;;;;;;26.88;12.55;;;;;;;;;;5037435;28;20030;-63
2022/12/14 02:50:14;;;;;;;31.67;13.55;;;;;;;;;;5055719;28;20393;-65
2022/12/14 02:52:52;;;;;;;24.60;12.77;;;;;;;;;;5055697;28;20044;-63
2022/12/14 02:55:24;;;;;;;26.30;11.95;;;;;;;;;;5055244;28;20106;-63
2022/12/14 02:57:55;;;;;;;24.70;11.20;;;;;;;;;;5055546;28;20025;-63
2022/12/14 03:00:21;;;;;;;26.15;12.38;;;;;;;;;;5053777;28;20062;-63
2022/12/14 03:02:47;;;;;;;25.83;12.57;;;;;;;;;;5055325;28;20025;-63
2022/12/14 03:05:13;;;;;;;25.85;13.75;;;;;;;;;;5055021;28;20036;-63
2022/12/14 03:07:58;;;;;;;24.50;12.02;;;;;;;;;;5053997;28;20052;-62
2022/12/14 03:10:27;;;;;;;29.27;12.93;;;;;;;;;;5055009;28;20025;-63
2022/12/14 03:13:16;;;;;;;25.38;11.60;;;;;;;;;;5053667;28;20536;-62
2022/12/14 03:15:44;;;;;;;28.45;12.18;;;;;;;;;;5055155;28;20021;-63
2022/12/14 03:18:12;;;;;;;25.70;12.13;;;;;;;;;;5054846;28;20029;-60
2022/12/14 03:20:38;;;;;;;25.25;12.63;;;;;;;;;;5054995;28;20088;-61
2022/12/14 03:23:09;;;;;;;24.77;12.43;;;;;;;;;;5054716;28;20032;-62
2022/12/14 03:25:41;;;;;;;24.00;13.40;;;;;;;;;;5054911;28;20033;-62
2022/12/14 03:28:11;;;;;;;27.02;11.50;;;;;;;;;;5053478;28;20404;-62
2022/12/14 03:30:38;;;;;;;25.70;12.70;;;;;;;;;;5053657;28;20024;-62
2022/12/14 03:33:07;;;;;;;26.63;12.25;;;;;;;;;;5054655;28;20021;-61
2022/12/14 03:35:45;;;;;;;23.05;10.55;;;;;;;;;;5053585;28;20114;-63
2022/12/14 03:38:16;;;;;;;24.65;11.68;;;;;;;;;;5054948;28;20025;-59
2022/12/14 03:40:45;;;;;;;22.27;11.52;;;;;;;;;;5054882;28;20385;-63
2022/12/14 03:43:15;;;;;;;27.83;13.07;;;;;;;;;;5054617;28;20048;-64
2022/12/14 03:45:41;;;;;;;27.13;12.20;;;;;;;;;;5054666;28;20036;-63
2022/12/14 03:48:26;;;;;;;24.65;11.35;;;;;;;;;;5053843;28;20021;-64
2022/12/14 03:50:56;;;;;;;23.13;11.77;;;;;;;;;;5054421;28;20052;-64
2022/12/14 03:53:30;;;;;;;24.00;11.38;;;;;;;;;;5054099;28;20020;-61
2022/12/14 03:56:02;;;;;;;23.58;10.93;;;;;;;;;;5054415;28;20036;-64
2022/12/14 03:58:44;;;;;;;24.92;13.02;;;;;;;;;;5053930;28;20029;-62
2022/12/14 04:01:10;;;;;;;25.70;11.43;;;;;;;;;;5052952;28;20032;-62
2022/12/14 04:03:55;;;;;;;26.73;12.23;;;;;;;;;;5052720;28;20477;-64
2022/12/14 04:06:21;;;;;;;23.35;11.32;;;;;;;;;;5053216;28;20032;-63
2022/12/14 04:08:59;;;;;;;25.75;12.15;;;;;;;;;;5054262;28;20384;-62
2022/12/14 04:19:56;;;;;;;24.67;11.13;;;;;;;;;;5054155;28;20106;-64
2022/12/14 04:22:24;;;;;;;22.25;10.57;;;;;;;;;;5053846;28;20021;-64
2022/12/14 04:27:58;;;;;;;24.20;11.48;;;;;;;;;;5053239;28;20575;-63
2022/12/14 04:30:24;;;;;;;24.27;11.90;;;;;;;;;;5053623;28;20063;-63
2022/12/14 04:32:50;;;;;;;25.30;12.57;;;;;;;;;;5052248;28;20108;-59
2022/12/14 04:35:45;;;;;;;22.67;10.88;;;;;;;;;;5052626;28;20025;-64
2022/12/14 04:38:17;;;;;;;26.33;12.13;;;;;;;;;;5048488;28;20037;-63
2022/12/14 04:40:54;;;;;;;28.58;10.65;;;;;;;;;;5053178;28;20021;-63
2022/12/14 04:43:22;;;;;;;24.45;11.23;;;;;;;;;;5052915;28;20495;-61
2022/12/14 04:45:57;;;;;;;23.45;10.85;;;;;;;;;;5051965;28;20044;-62
2022/12/14 04:48:33;;;;;;;23.02;11.55;;;;;;;;;;5041980;28;20068;-61
2022/12/14 04:51:14;;;;;;;25.08;12.40;;;;;;;;;;5033327;28;20028;-62
2022/12/14 04:53:42;;;;;;;21.73;11.52;;;;;;;;;;5032593;28;20112;-62
2022/12/14 04:56:08;;;;;;;25.17;11.45;;;;;;;;;;5032331;28;20049;-62
2022/12/14 04:58:34;;;;;;;26.85;12.05;;;;;;;;;;5032656;28;20037;-62
2022/12/14 05:01:23;;;;;;;23.25;11.43;;;;;;;;;;5032052;28;20053;-61
2022/12/14 05:04:03;;;;;;;24.60;12.02;;;;;;;;;;5031540;28;20078;-63
2022/12/14 05:06:35;;;;;;;23.50;12.02;;;;;;;;;;5032905;28;20060;-63
2022/12/14 05:09:09;;;;;;;24.38;12.45;;;;;;;;;;5032695;28;20060;-57
2022/12/14 05:11:54;;;;;;;26.00;12.23;;;;;;;;;;5032753;28;20029;-64
2022/12/14 05:14:31;;;;;;;22.52;10.73;;;;;;;;;;5030921;28;20028;-63
2022/12/14 05:16:57;;;;;;;24.80;12.30;;;;;;;;;;5031448;28;20440;-65
2022/12/14 05:19:25;;;;;;;23.48;11.38;;;;;;;;;;5032720;28;20072;-63
2022/12/14 05:21:51;;;;;;;24.52;12.40;;;;;;;;;;5032696;28;20041;-64
2022/12/14 05:24:17;;;;;;;23.58;12.65;;;;;;;;;;5032398;28;20116;-64
2022/12/14 05:26:43;;;;;;;24.17;11.10;;;;;;;;;;5032574;28;20049;-62
2022/12/14 05:29:09;;;;;;;25.15;11.80;;;;;;;;;;5032431;28;20573;-64
2022/12/14 05:31:35;;;;;;;21.55;11.82;;;;;;;;;;5031084;28;20132;-61
2022/12/14 05:34:01;;;;;;;23.13;12.18;;;;;;;;;;5030670;28;20053;-61
2022/12/14 05:36:27;;;;;;;23.40;12.27;;;;;;;;;;5032521;28;20026;-64
2022/12/14 05:38:53;;;;;;;28.77;14.13;;;;;;;;;;5030907;28;20028;-61
2022/12/14 05:41:19;;;;;;;43.28;24.10;;;;;;;;;;5032283;28;20432;-64
2022/12/14 05:43:45;;;;;;;30.67;15.85;;;;;;;;;;5030762;28;20076;-64
2022/12/14 05:46:11;;;;;;;27.08;12.50;;;;;;;;;;5032201;28;20041;-64
2022/12/14 05:48:37;;;;;;;24.45;11.40;;;;;;;;;;5043577;28;20032;-63
2022/12/14 05:51:04;;;;;;;25.10;12.25;;;;;;;;;;5052031;28;20029;-58
2022/12/14 05:53:30;;;;;;;22.70;11.18;;;;;;;;;;5051581;28;20397;-60
2022/12/14 05:55:56;;;;;;;24.83;11.50;;;;;;;;;;5051835;28;20024;-64
2022/12/14 05:58:22;;;;;;;19.58;10.13;;;;;;;;;;5051911;28;20032;-64
2022/12/14 06:00:48;;;;;;;25.17;12.02;;;;;;;;;;5025636;22;20062;-58
2022/12/14 06:03:14;;;;;;;22.50;10.43;;;;;;;;;;4991569;28;20391;-60
2022/12/14 06:05:41;;;;;;;21.45;10.23;;;;;;;;;;4992423;28;20022;-61
2022/12/14 06:08:07;;;;;;;22.02;10.65;;;;;;;;;;4992439;28;20026;-56
2022/12/14 06:10:33;;;;;;;24.52;11.65;;;;;;;;;;4992213;28;20027;-61
2022/12/14 06:12:59;;;;;;;21.02;10.45;;;;;;;;;;4992069;28;20463;-61
2022/12/14 06:15:26;;;;;;;20.98;10.82;;;;;;;;;;4990812;28;20029;-62
2022/12/14 06:17:52;;;;;;;24.17;11.65;;;;;;;;;;4990774;28;20018;-62
2022/12/14 06:20:19;;;;;;;22.85;11.10;;;;;;;;;;4991941;28;20470;-62
2022/12/14 06:22:45;;;;;;;24.00;11.75;;;;;;;;;;4992291;28;20034;-62
2022/12/14 06:25:10;;;;;;;23.95;10.95;;;;;;;;;;4990911;28;20023;-61
2022/12/14 06:27:36;;;;;;;23.77;11.57;;;;;;;;;;4992168;28;20479;-62
2022/12/14 06:30:02;;;;;;;23.00;12.15;;;;;;;;;;4991863;28;20129;-60
2022/12/14 06:32:28;;;;;;;20.08;11.00;;;;;;;;;;4992098;28;20031;-56
2022/12/14 06:34:54;;;;;;;21.42;10.63;;;;;;;;;;4991610;28;20030;-61
2022/12/14 06:37:20;;;;;;;21.30;11.32;;;;;;;;;;4990796;28;20030;-59
2022/12/14 06:39:46;;;;;;;23.83;12.07;;;;;;;;;;4992008;28;20026;-57
2022/12/14 06:42:12;;;;;;;24.30;11.85;;;;;;;;;;4991933;28;20052;-60
2022/12/14 06:44:38;;;;;;;23.20;11.00;;;;;;;;;;4991381;28;20040;-58
2022/12/14 06:47:04;;;;;;;23.60;11.95;;;;;;;;;;4990473;28;20031;-57
2022/12/14 06:49:30;;;;;;;20.55;10.63;;;;;;;;;;5010108;28;20026;-58
2022/12/14 06:51:56;;;;;;;22.88;11.27;;;;;;;;;;5011340;28;20105;-57
2022/12/14 06:54:25;;;;;;;21.75;10.48;;;;;;;;;;5009794;28;20044;-57
2022/12/14 06:56:51;;;;;;;22.02;10.85;;;;;;;;;;5010823;28;20450;-59
2022/12/14 06:59:17;;;;;;;25.38;12.25;;;;;;;;;;5010901;28;20030;-62
2022/12/14 07:01:44;;;;;;;23.67;11.15;;;;;;;;;;5010982;28;20340;-60
2022/12/14 07:04:11;;;;;;;20.77;10.88;;;;;;;;;;5010421;28;20026;-60
2022/12/14 07:06:38;;;;;;;22.35;11.15;;;;;;;;;;5011123;28;20386;-58
2022/12/14 07:09:04;;;;;;;22.88;10.63;;;;;;;;;;5010920;28;20025;-57
2022/12/14 07:11:30;;;;;;;22.20;11.48;;;;;;;;;;5010920;28;20028;-60
2022/12/14 07:13:59;;;;;;;22.88;10.98;;;;;;;;;;5010427;28;20030;-62
2022/12/14 07:16:26;;;;;;;21.20;10.50;;;;;;;;;;5010670;28;20030;-60
2022/12/14 07:18:53;;;;;;;21.45;10.68;;;;;;;;;;5010823;28;20034;-60
2022/12/14 07:21:20;;;;;;;23.33;11.27;;;;;;;;;;5010880;28;20029;-60
2022/12/14 07:23:46;;;;;;;22.33;11.10;;;;;;;;;;5012239;28;20025;-59
2022/12/14 07:26:14;;;;;;;22.67;11.30;;;;;;;;;;4996421;28;20392;-58
2022/12/14 07:28:40;;;;;;;20.52;10.50;;;;;;;;;;4994652;28;20121;-60
2022/12/14 07:31:09;;;;;;;20.77;10.10;;;;;;;;;;4994559;28;20407;-60
2022/12/14 07:33:35;;;;;;;22.02;10.63;;;;;;;;;;4994311;28;20034;-60
2022/12/14 07:36:04;;;;;;;24.08;10.75;;;;;;;;;;4994482;28;20503;-62
2022/12/14 07:38:30;;;;;;;23.25;11.50;;;;;;;;;;4994645;28;20027;-58
2022/12/14 07:41:03;;;;;;;21.52;11.40;;;;;;;;;;4994417;28;20038;-62
2022/12/14 07:43:29;;;;;;;21.08;10.57;;;;;;;;;;4994035;28;20101;-60
2022/12/14 07:45:58;;;;;;;25.08;11.20;;;;;;;;;;4994165;28;20018;-58
2022/12/14 07:48:24;;;;;;;20.63;10.10;;;;;;;;;;5002907;28;20033;-61
2022/12/14 07:50:50;;;;;;;20.40;11.15;;;;;;;;;;5014013;28;20375;-61
2022/12/14 07:53:16;;;;;;;23.48;11.15;;;;;;;;;;5009094;28;20109;-62
2022/12/14 07:55:42;;;;;;;23.45;11.07;;;;;;;;;;4992745;28;20041;-62
2022/12/14 07:58:08;;;;;;;20.55;10.32;;;;;;;;;;5013814;28;20036;-59
2022/12/14 08:00:34;;;;;;;21.88;10.48;;;;;;;;;;5004201;28;20037;-61
2022/12/14 08:03:00;;;;;;;20.63;10.25;;;;;;;;;;5013927;28;20075;-59
2022/12/14 08:05:26;;;;;;;21.83;10.57;;;;;;;;;;5013568;28;20034;-59
2022/12/14 08:07:52;;;;;;;23.77;10.60;;;;;;;;;;5013503;28;20026;-59
2022/12/14 08:10:18;;;;;;;19.33;9.93;;;;;;;;;;5013552;28;20038;-54
2022/12/14 08:12:44;;;;;;;23.88;10.88;;;;;;;;;;5005409;28;20027;-59
2022/12/14 08:15:10;;;;;;;19.33;9.75;;;;;;;;;;4994074;28;20022;-58
2022/12/14 08:17:36;;;;;;;27.45;10.93;;;;;;;;;;4994154;28;20029;-59
2022/12/14 08:20:03;;;;;;;21.55;10.23;;;;;;;;;;4993947;28;20069;-59
2022/12/14 08:22:28;;;;;;;24.00;10.98;;;;;;;;;;4993970;28;20026;-57
2022/12/14 08:24:54;;;;;;;23.65;10.85;;;;;;;;;;4993891;28;20558;-59
2022/12/14 08:27:20;;;;;;;26.30;10.63;;;;;;;;;;4993765;28;20069;-58
2022/12/14 08:29:46;;;;;;;21.73;11.13;;;;;;;;;;4992642;28;20486;-60
2022/12/14 08:32:12;;;;;;;21.13;10.77;;;;;;;;;;4993954;28;20092;-60
2022/12/14 08:34:38;;;;;;;22.80;10.02;;;;;;;;;;4993599;28;20487;-59
2022/12/14 08:37:04;;;;;;;20.08;9.98;;;;;;;;;;4992629;28;20021;-58
2022/12/14 08:39:30;;;;;;;18.50;8.63;;;;;;;;;;4992246;28;20030;-64
2022/12/14 08:41:56;;;;;;;20.83;9.85;;;;;;;;;;4994179;28;20105;-63
2022/12/14 08:44:22;;;;;;;19.63;9.88;;;;;;;;;;4993851;28;20026;-63
2022/12/14 08:46:49;;;;;;;20.73;9.95;;;;;;;;;;4992026;28;20033;-63
2022/12/14 08:49:15;;;;;;;22.15;10.15;;;;;;;;;;4999892;28;20041;-64
2022/12/14 08:51:41;;;;;;;21.90;10.82;;;;;;;;;;5013019;28;20053;-63
2022/12/14 08:54:07;;;;;;;22.85;11.40;;;;;;;;;;5012625;28;20501;-63
2022/12/14 08:56:33;;;;;;;24.60;11.63;;;;;;;;;;5012862;28;20026;-64
2022/12/14 08:58:59;;;;;;;21.30;11.25;;;;;;;;;;5011411;28;20018;-63
2022/12/14 09:01:27;;;;;;;25.50;11.27;;;;;;;;;;4997913;28;20552;-64
2022/12/14 09:03:53;;;;;;;21.15;10.55;;;;;;;;;;4993583;28;20030;-64
2022/12/14 09:06:22;;;;;;;23.60;11.55;;;;;;;;;;4992723;28;20562;-64
2022/12/14 09:08:49;;;;;;;23.83;11.75;;;;;;;;;;4993152;28;20033;-63
2022/12/14 09:11:15;;;;;;;22.33;10.50;;;;;;;;;;4993727;28;20394;-63
2022/12/14 09:13:42;;;;;;;24.33;9.95;;;;;;;;;;4991471;28;20022;-61
2022/12/14 09:16:10;;;;;;;22.98;10.70;;;;;;;;;;4991627;28;20030;-62
2022/12/14 09:18:36;;;;;;;24.23;11.38;;;;;;;;;;4993173;28;20050;-63
2022/12/14 09:21:02;;;;;;;23.38;11.95;;;;;;;;;;4992718;28;20442;-63
2022/12/14 09:23:29;;;;;;;23.10;11.35;;;;;;;;;;4992606;28;20073;-63
2022/12/14 09:26:01;;;;;;;21.80;11.80;;;;;;;;;;4992576;28;20104;-61
2022/12/14 09:28:28;;;;;;;20.92;11.07;;;;;;;;;;4992407;28;20026;-63
2022/12/14 09:30:55;;;;;;;23.27;11.98;;;;;;;;;;4992530;28;20368;-63
2022/12/14 09:33:21;;;;;;;26.57;11.03;;;;;;;;;;4992468;28;20516;-63
2022/12/14 09:35:47;;;;;;;22.88;11.05;;;;;;;;;;4992129;28;20022;-63
2022/12/14 09:38:13;;;;;;;23.38;10.82;;;;;;;;;;4992082;28;20453;-64
2022/12/14 09:40:42;;;;;;;21.52;10.63;;;;;;;;;;4991965;28;20019;-63
2022/12/14 09:43:14;;;;;;;22.50;11.52;;;;;;;;;;4992295;28;20664;-61
2022/12/14 09:45:46;;;;;;;27.42;11.52;;;;;;;;;;4992075;28;20411;-64
2022/12/14 09:48:17;;;;;;;20.88;11.20;;;;;;;;;;4992316;28;20026;-63
2022/12/14 09:50:46;;;;;;;25.02;12.25;;;;;;;;;;5010986;28;20022;-65
2022/12/14 09:53:13;;;;;;;33.00;16.10;;;;;;;;;;5011544;28;20367;-65
2022/12/14 09:55:43;;;;;;;31.95;14.70;;;;;;;;;;5011902;28;20022;-64
2022/12/14 09:58:15;;;;;;;25.40;13.63;;;;;;;;;;5010680;28;20113;-65
2022/12/14 10:00:45;;;;;;;23.50;12.20;;;;;;;;;;5010203;28;20421;-63
2022/12/14 10:03:14;;;;;;;24.35;12.77;;;;;;;;;;5011349;28;20364;-63
2022/12/14 10:05:59;;;;;;;23.13;11.30;;;;;;;;;;5012190;28;20080;-64
2022/12/14 10:08:31;;;;;;;24.27;11.50;;;;;;;;;;5010587;28;20541;-63
2022/12/14 10:10:57;;;;;;;27.55;12.00;;;;;;;;;;5012124;28;20026;-64
2022/12/14 10:13:42;;;;;;;27.60;11.88;;;;;;;;;;5010371;28;20057;-67
2022/12/14 10:16:26;;;;;;;23.85;12.50;;;;;;;;;;5012237;28;20037;-67
2022/12/14 10:18:52;;;;;;;24.75;11.57;;;;;;;;;;5012015;28;20022;-63
2022/12/14 10:21:21;;;;;;;25.95;12.23;;;;;;;;;;5012430;28;20386;-63
2022/12/14 10:23:56;;;;;;;22.40;11.82;;;;;;;;;;5011537;28;20041;-64
2022/12/14 10:26:23;;;;;;;23.65;11.45;;;;;;;;;;5011712;28;20029;-64
2022/12/14 10:28:52;;;;;;;24.00;11.70;;;;;;;;;;4990969;28;20483;-64
2022/12/14 10:31:27;;;;;;;28.73;12.15;;;;;;;;;;4992153;28;20033;-64
2022/12/14 10:33:57;;;;;;;25.58;11.32;;;;;;;;;;4990454;28;20029;-63
2022/12/14 10:36:29;;;;;;;26.30;12.27;;;;;;;;;;4992130;28;20026;-61
2022/12/14 10:39:16;;;;;;;26.50;13.07;;;;;;;;;;4990702;28;20045;-63
2022/12/14 10:41:52;;;;;;;26.10;12.07;;;;;;;;;;4990807;28;20080;-64
2022/12/14 10:44:36;;;;;;;25.52;11.43;;;;;;;;;;4991519;28;20413;-64
2022/12/14 10:47:15;;;;;;;23.23;12.73;;;;;;;;;;4991645;28;20026;-61
2022/12/14 10:49:51;;;;;;;27.75;14.23;;;;;;;;;;5001854;28;20554;-65
2022/12/14 10:52:19;;;;;;;23.40;13.30;;;;;;;;;;5009979;28;20168;-62
2022/12/14 10:54:48;;;;;;;25.70;15.00;;;;;;;;;;5010773;28;20041;-64
2022/12/14 10:57:22;;;;;;;23.02;13.70;;;;;;;;;;5011159;28;20026;-64
2022/12/14 10:59:48;;;;;;;31.38;14.10;;;;;;;;;;5014637;28;20037;-65
2022/12/14 11:02:18;;;;;;;27.25;13.98;;;;;;;;;;5016073;28;20371;-65
2022/12/14 11:05:11;;;;;;;26.10;14.80;;;;;;;;;;5015331;28;20022;-64
2022/12/14 11:07:38;;;;;;;29.10;14.50;;;;;;;;;;5014870;28;20049;-65
2022/12/14 11:10:17;;;;;;;34.72;15.95;;;;;;;;;;5013090;28;20052;-66
2022/12/14 11:12:55;;;;;;;27.05;16.45;;;;;;;;;;5014586;28;20083;-65
2022/12/14 11:15:42;;;;;;;26.77;15.25;;;;;;;;;;5014384;28;20033;-66
2022/12/14 11:18:11;;;;;;;34.75;17.20;;;;;;;;;;5015022;28;20517;-66
2022/12/14 11:20:48;;;;;;;23.77;15.40;;;;;;;;;;5014992;28;20013;-65
2022/12/14 11:23:17;;;;;;;28.73;17.02;;;;;;;;;;5006777;28;20483;-65
2022/12/14 11:25:44;;;;;;;22.98;15.98;;;;;;;;;;4993976;28;20029;-65
2022/12/14 11:28:29;;;;;;;22.87;16.07;;;;;;;;;;4995250;28;20246;-64
2022/12/14 11:30:58;;;;;;;28.90;16.98;;;;;;;;;;4995193;28;20030;-65
2022/12/14 11:33:26;;;;;;;25.08;15.48;;;;;;;;;;4993166;28;20026;-66
2022/12/14 11:35:52;;;;;;;33.15;17.35;;;;;;;;;;4993503;28;20027;-66
2022/12/14 11:38:18;;;;;;;24.02;16.77;;;;;;;;;;4995110;28;20027;-66
2022/12/14 11:40:45;;;;;;;25.73;16.35;;;;;;;;;;4994778;28;20391;-66
2022/12/14 11:43:33;;;;;;;28.90;16.88;;;;;;;;;;4994783;28;20035;-64
2022/12/14 11:45:59;;;;;;;;;;;;;;;;;;4995130;28;20511;-67
2022/12/14 11:48:26;;;;;;;22.88;15.98;;;;;;;;;;4995022;28;19906;-67
2022/12/14 11:50:53;;;;;;;26.48;16.45;;;;;;;;;;5014156;28;20026;-63
2022/12/14 11:53:20;;;;;;;28.80;16.05;;;;;;;;;;5014138;28;20109;-66
2022/12/14 11:55:57;;;;;;;25.02;15.52;;;;;;;;;;5012757;28;20030;-66
2022/12/14 11:58:38;;;;;;;23.90;15.55;;;;;;;;;;5013332;28;20029;-66
2022/12/14 12:01:05;;;;;;;27.48;15.07;;;;;;;;;;5010980;23;20062;-68
2022/12/14 12:03:41;;;;;;;22.42;16.10;;;;;;;;;;4972597;28;20483;-68
2022/12/14 12:06:09;;;;;;;23.40;15.32;;;;;;;;;;4974360;28;20030;-68
2022/12/14 12:08:37;;;;;;;25.67;15.90;;;;;;;;;;4974223;28;20031;-69
2022/12/14 12:11:05;;;;;;;25.33;16.10;;;;;;;;;;4974822;28;20034;-69
2022/12/14 12:13:31;;;;;;;28.85;17.83;;;;;;;;;;4974274;28;20046;-68
2022/12/14 12:15:59;;;;;;;24.40;16.48;;;;;;;;;;4974632;28;20023;-68
2022/12/14 12:18:28;;;;;;;26.80;16.33;;;;;;;;;;4974094;28;20031;-68
2022/12/14 12:21:00;;;;;;;21.83;15.25;;;;;;;;;;4974539;28;20022;-68
2022/12/14 12:23:47;;;;;;;25.08;15.98;;;;;;;;;;4975631;28;20051;-68
2022/12/14 12:26:19;;;;;;;27.77;15.20;;;;;;;;;;4975234;28;20039;-68
2022/12/14 12:28:47;;;;;;;22.25;14.85;;;;;;;;;;4974016;28;20039;-67
2022/12/14 12:31:18;;;;;;;25.45;15.80;;;;;;;;;;4974001;28;20460;-68
2022/12/14 12:34:04;;;;;;;25.75;15.73;;;;;;;;;;4974566;28;20057;-68
2022/12/14 12:36:32;;;;;;;20.52;14.73;;;;;;;;;;4975262;28;20050;-69
2022/12/14 12:39:04;;;;;;;22.17;15.20;;;;;;;;;;4973539;28;20407;-69
2022/12/14 12:41:30;;;;;;;22.10;15.07;;;;;;;;;;4974156;28;20031;-69
2022/12/14 12:44:18;;;;;;;20.48;14.05;;;;;;;;;;4972869;28;20113;-68
2022/12/14 12:46:51;;;;;;;24.73;14.60;;;;;;;;;;4974868;28;20162;-67
2022/12/14 12:49:17;;;;;;;21.60;14.27;;;;;;;;;;4980639;28;20077;-67
2022/12/14 12:51:46;;;;;;;22.73;14.80;;;;;;;;;;4991928;28;20026;-68
2022/12/14 12:54:15;;;;;;;28.05;19.30;;;;;;;;;;4992982;28;20299;-68
2022/12/14 12:56:44;;;;;;;24.85;15.63;;;;;;;;;;4993440;28;20158;-68
2022/12/14 12:59:21;;;;;;;26.90;16.25;;;;;;;;;;4992056;28;20022;-68
2022/12/14 13:01:49;;;;;;;25.25;15.82;;;;;;;;;;4992165;28;20046;-68
2022/12/14 13:04:22;;;;;;;23.13;16.08;;;;;;;;;;4993065;28;20394;-69
2022/12/14 13:06:52;;;;;;;25.88;16.15;;;;;;;;;;4991571;28;20034;-68
2022/12/14 13:09:36;;;;;;;24.23;15.68;;;;;;;;;;4993048;28;20029;-67
2022/12/14 13:12:04;;;;;;;25.35;16.23;;;;;;;;;;4992963;28;20025;-68
2022/12/14 13:14:33;;;;;;;27.05;15.63;;;;;;;;;;4992947;28;20026;-66
2022/12/14 13:17:02;;;;;;;24.40;14.13;;;;;;;;;;4992156;28;20030;-66
2022/12/14 13:19:28;;;;;;;;;;;;;;;;;;4993445;28;20076;-68
2022/12/14 13:21:54;;;;;;;23.77;12.82;;;;;;;;;;4990638;28;19901;-67
2022/12/14 13:24:21;;;;;;;24.08;13.75;;;;;;;;;;4992018;28;20026;-69
2022/12/14 13:26:50;;;;;;;22.00;13.73;;;;;;;;;;4991616;28;20370;-69
2022/12/14 13:29:19;;;;;;;21.33;13.13;;;;;;;;;;4993996;28;20085;-69
2022/12/14 13:32:06;;;;;;;21.98;13.00;;;;;;;;;;4990944;28;20034;-68
2022/12/14 13:34:35;;;;;;;19.83;12.80;;;;;;;;;;4992808;28;20085;-69
2022/12/14 13:37:12;;;;;;;22.15;12.23;;;;;;;;;;4996499;28;20026;-68
2022/12/14 13:39:57;;;;;;;21.38;12.85;;;;;;;;;;4996091;28;20028;-69
2022/12/14 13:42:49;;;;;;;21.65;13.15;;;;;;;;;;4995862;28;20553;-68
2022/12/14 13:45:16;;;;;;;24.15;14.55;;;;;;;;;;4978557;28;20443;-69
2022/12/14 13:47:44;;;;;;;20.35;12.55;;;;;;;;;;4992574;28;20019;-69
2022/12/14 13:50:30;;;;;;;22.05;14.02;;;;;;;;;;4978202;28;20023;-69
2022/12/14 13:53:00;;;;;;;22.85;13.02;;;;;;;;;;4972964;28;20085;-69
2022/12/14 13:55:26;;;;;;;20.17;12.93;;;;;;;;;;4972152;28;20031;-68
2022/12/14 13:57:53;;;;;;;22.70;13.27;;;;;;;;;;4980763;28;20030;-69
2022/12/14 14:00:38;;;;;;;21.48;13.45;;;;;;;;;;4991955;28;20049;-69
2022/12/14 14:03:04;;;;;;;23.08;14.23;;;;;;;;;;4974277;28;20030;-67
2022/12/14 14:05:37;;;;;;;23.92;13.95;;;;;;;;;;4971577;28;20023;-67
2022/12/14 14:08:23;;;;;;;20.33;12.90;;;;;;;;;;4972400;28;20104;-70
2022/12/14 14:10:49;;;;;;;22.60;13.07;;;;;;;;;;4972281;28;20041;-69
2022/12/14 14:13:27;;;;;;;22.55;13.23;;;;;;;;;;4973023;28;20038;-69
2022/12/14 14:16:13;;;;;;;21.23;12.60;;;;;;;;;;4991748;28;20030;-67
2022/12/14 14:18:54;;;;;;;21.65;13.43;;;;;;;;;;4992133;28;20030;-71
2022/12/14 14:21:19;;;;;;;22.33;12.75;;;;;;;;;;4990560;28;20022;-70
2022/12/14 14:24:17;;;;;;;23.08;13.15;;;;;;;;;;4991670;28;20486;-69
2022/12/14 14:26:58;;;;;;;22.45;11.98;;;;;;;;;;4988771;28;20023;-69
2022/12/14 14:29:30;;;;;;;24.17;12.88;;;;;;;;;;4972338;28;20055;-67
2022/12/14 14:32:22;;;;;;;22.52;13.30;;;;;;;;;;4972092;28;20050;-67
2022/12/14 14:34:49;;;;;;;19.60;11.93;;;;;;;;;;4972296;28;20037;-68
2022/12/14 14:37:15;;;;;;;22.45;12.40;;;;;;;;;;4972409;28;20028;-67
2022/12/14 14:39:42;;;;;;;21.85;12.65;;;;;;;;;;4972322;28;20027;-67
2022/12/14 14:42:15;;;;;;;23.55;13.52;;;;;;;;;;4971986;28;20027;-66
2022/12/14 14:45:10;;;;;;;21.17;12.38;;;;;;;;;;4972158;28;20037;-66
2022/12/14 14:47:38;;;;;;;22.75;12.57;;;;;;;;;;4958051;28;20035;-67